createdAt,value
2018-09-28T00:02:30.408Z,31.73
2018-09-28T00:05:01.737Z,32.03
2018-09-28T00:07:32.928Z,31.30
2018-09-28T00:10:04.131Z,32.67
2018-09-28T00:12:35.280Z,33.90
2018-09-28T00:15:06.627Z,30.30
2018-09-28T00:17:37.792Z,34.47
2018-09-28T00:20:09.933Z,27.53
2018-09-28T00:22:41.049Z,30.30
2018-09-28T00:25:18.003Z,29.53
2018-09-28T00:27:49.199Z,23.50
2018-09-28T00:30:21.265Z,22.37
2018-09-28T00:32:53.540Z,19.83
2018-09-28T00:35:24.846Z,21.40
2018-09-28T00:37:56.058Z,21.27
2018-09-28T00:40:27.193Z,12.80
2018-09-28T00:42:58.366Z,13.07
2018-09-28T00:45:29.671Z,12.57
2018-09-28T00:48:00.912Z,14.87
2018-09-28T00:50:32.144Z,10.97
2018-09-28T00:53:03.402Z,10.90
2018-09-28T00:55:34.717Z,9.10
2018-09-28T00:58:05.905Z,13.00
2018-09-28T01:00:37.199Z,12.93
2018-09-28T01:03:08.665Z,7.93
2018-09-28T01:05:40.071Z,10.93
2018-09-28T01:08:11.281Z,9.83
2018-09-28T01:10:42.580Z,9.70
2018-09-28T01:13:13.820Z,14.27
2018-09-28T01:15:45.087Z,8.73
2018-09-28T01:18:16.353Z,8.73
2018-09-28T01:20:47.666Z,12.33
2018-09-28T01:23:18.915Z,8.60
2018-09-28T01:25:50.263Z,7.10
2018-09-28T01:28:21.562Z,8.77
2018-09-28T01:30:52.820Z,9.40
2018-09-28T01:33:24.028Z,8.00
2018-09-28T01:35:55.225Z,8.80
2018-09-28T01:38:26.458Z,9.70
2018-09-28T01:40:57.740Z,7.73
2018-09-28T02:09:16.563Z,7.27
2018-09-28T04:32:38.826Z,13.80
2018-09-28T11:38:45.408Z,6.43
2018-09-28T11:41:15.551Z,4.90
2018-09-28T11:43:45.766Z,4.27
2018-09-28T11:46:15.998Z,5.33
2018-09-28T11:48:46.100Z,9.27
2018-09-28T11:51:16.272Z,4.77
2018-09-28T11:53:46.363Z,7.00
2018-09-28T11:56:16.453Z,5.87
2018-09-28T12:01:43.697Z,5.60
2018-09-28T12:13:27.370Z,3.63
2018-09-28T12:16:04.325Z,5.60
2018-09-28T12:36:56.786Z,4.90
2018-09-28T18:47:56.063Z,6.73
2018-09-28T18:50:27.482Z,8.50
2018-09-28T18:56:17.457Z,13.53
2018-09-28T18:58:52.216Z,11.67
2018-09-28T23:11:40.174Z,6.83
